Main page
METAR-TAF:

METAR-TAF

Airports :

Gran Canaria Airport

Gran Canaria, Spain

latitude: 27-56N, longitude: 015-23W, elevation: 23 m

Current weather observation

The report was made 26 minutes ago, at 00:30 UTC
Wind 13 kt from the North
Temperature 17°C
Humidity 68%
Pressure 1023 hPa
Visibility 10 km or more
Scattered clouds at a height of 3000 ft

METAR: GCLP 160030Z 35013KT 9999 SCT030 17/11 Q1023 NOSIG

Time: 00:56 (00:56 UTC)

Forecast

The report was made 4 hours and 56 minutes ago, at 20:00 UTC
Forecast valid from 15 at 21 UTC to 16 at 21 UTC
Wind 12 kt from the North/Northwest
Visibility 10 km or more
Few clouds at a height of 2500 ft
Probability 30% :
Temporary
from 16 at 10 UTC to 16 at 18 UTC
Wind 15 kt from the Northeast

TAF: GCLP 152000Z 1521/1621 34012KT 9999 FEW025 TX21/1614Z TN16/1606Z PROB30 TEMPO 1610/1618 04015KT

Weather observations and forecasts of more than 4000 airports (METAR and TAF reports).

The available stations are represented by yellow and red dots on the map.

Hover mouse over dot to see the name of the station.

Then click to see weather observations and forecasts.

To change the map : click on the green buttons with a black cross to zoom in, on the green button with a dash to zoom out, or on the green arrows for adjacent maps.


METAR-TAF: